createdAt,value
2018-04-26T00:00:20.401Z,0.00
2018-04-26T00:01:20.391Z,0.00
2018-04-26T00:02:20.378Z,0.00
2018-04-26T00:03:20.367Z,0.00
2018-04-26T00:04:20.357Z,0.00
2018-04-26T00:05:20.345Z,0.00
2018-04-26T00:06:20.333Z,0.00
2018-04-26T00:07:20.322Z,0.00
2018-04-26T00:08:20.327Z,0.00
2018-04-26T00:09:20.299Z,0.00
2018-04-26T00:10:20.301Z,0.00
2018-04-26T00:11:20.276Z,0.00
2018-04-26T00:12:20.301Z,0.00
2018-04-26T00:13:20.254Z,0.00
2018-04-26T00:14:20.248Z,0.00
2018-04-26T00:15:20.286Z,0.00
2018-04-26T00:16:20.219Z,0.00
2018-04-26T00:17:20.208Z,0.00
2018-04-26T00:18:20.196Z,0.00
2018-04-26T00:19:20.187Z,0.00
2018-04-26T00:20:20.173Z,0.00
2018-04-26T00:21:20.162Z,0.00
2018-04-26T00:22:20.150Z,0.00
2018-04-26T00:23:20.139Z,0.00
2018-04-26T00:24:20.158Z,0.00
2018-04-26T00:25:20.117Z,0.00
2018-04-26T00:26:20.315Z,0.00
2018-04-26T00:27:20.092Z,0.00
2018-04-26T00:28:20.081Z,0.00
2018-04-26T00:29:20.080Z,0.00
2018-04-26T00:30:20.068Z,0.00
2018-04-26T00:31:20.050Z,0.00
2018-04-26T00:32:20.069Z,0.00
2018-04-26T00:33:20.025Z,0.00
2018-04-26T00:34:20.012Z,0.00
2018-04-26T00:35:20.004Z,0.00
2018-04-26T00:36:19.990Z,0.00
2018-04-26T00:37:19.981Z,0.00
2018-04-26T00:38:19.966Z,0.00
2018-04-26T00:39:19.973Z,0.00
2018-04-26T00:40:19.943Z,0.00
2018-04-26T00:41:19.949Z,0.00
2018-04-26T00:42:19.919Z,0.00
2018-04-26T00:43:19.911Z,0.00
2018-04-26T00:44:19.927Z,0.00
2018-04-26T00:45:19.886Z,0.00
2018-04-26T00:46:19.874Z,0.00
2018-04-26T00:47:19.863Z,0.00
2018-04-26T00:48:19.852Z,0.00
2018-04-26T00:49:19.840Z,0.00
2018-04-26T00:50:19.829Z,0.00
2018-04-26T00:51:19.820Z,0.00
2018-04-26T00:52:19.807Z,0.00
2018-04-26T00:53:19.795Z,0.00
2018-04-26T00:54:19.794Z,0.00
2018-04-26T00:55:19.873Z,0.00
2018-04-26T00:56:19.764Z,0.00
2018-04-26T00:57:19.750Z,0.00
2018-04-26T00:58:19.762Z,0.00
2018-04-26T00:59:19.750Z,0.00
2018-04-26T01:00:19.716Z,0.00
2018-04-26T01:01:19.756Z,0.00
2018-04-26T01:02:19.693Z,0.00
2018-04-26T01:03:19.681Z,0.00
2018-04-26T01:04:19.676Z,0.00
2018-04-26T01:05:19.661Z,0.00
2018-04-26T01:06:19.648Z,0.00
2018-04-26T01:07:19.637Z,0.00
2018-04-26T01:08:19.625Z,0.00
2018-04-26T01:09:19.630Z,0.00
2018-04-26T01:10:19.629Z,0.00
2018-04-26T01:11:19.591Z,0.00
2018-04-26T01:12:19.580Z,0.00
2018-04-26T01:13:19.569Z,0.00
2018-04-26T01:14:19.568Z,0.00
2018-04-26T01:15:19.545Z,0.00
2018-04-26T01:16:19.545Z,0.00
2018-04-26T01:17:19.525Z,0.00
2018-04-26T01:18:19.511Z,0.00
2018-04-26T01:19:19.501Z,0.00
2018-04-26T01:20:19.490Z,0.00
2018-04-26T01:21:19.477Z,0.00
2018-04-26T01:22:19.466Z,0.00
2018-04-26T01:23:19.454Z,0.00
2018-04-26T01:24:19.443Z,0.00
2018-04-26T01:25:19.444Z,0.00
2018-04-26T01:26:19.420Z,0.00
2018-04-26T01:27:19.447Z,0.00
2018-04-26T01:28:19.398Z,0.00
2018-04-26T01:29:19.403Z,0.00
2018-04-26T01:30:19.401Z,0.00
2018-04-26T01:31:19.364Z,0.00
2018-04-26T01:32:19.353Z,0.00
2018-04-26T01:33:19.365Z,0.00
2018-04-26T01:34:19.330Z,0.00
2018-04-26T01:35:19.320Z,0.00
2018-04-26T01:36:19.309Z,0.00
2018-04-26T01:37:19.298Z,0.00
2018-04-26T01:38:19.288Z,0.00
2018-04-26T01:39:19.302Z,0.00
2018-04-26T01:40:19.266Z,0.00
2018-04-26T01:41:19.252Z,0.00
2018-04-26T01:42:19.240Z,0.00
2018-04-26T01:43:19.230Z,0.00
2018-04-26T01:44:19.220Z,0.00
2018-04-26T01:45:19.225Z,0.00
2018-04-26T01:46:19.196Z,0.00
2018-04-26T01:47:19.186Z,0.00
2018-04-26T01:48:19.175Z,0.00
2018-04-26T01:49:19.162Z,0.00
2018-04-26T01:50:19.153Z,0.00
2018-04-26T01:51:19.140Z,0.00
2018-04-26T01:52:19.129Z,0.00
2018-04-26T01:53:19.118Z,0.00
2018-04-26T01:54:19.127Z,0.00
2018-04-26T01:55:19.095Z,0.00
2018-04-26T01:56:19.189Z,0.00
2018-04-26T01:57:19.073Z,0.00
2018-04-26T01:58:19.061Z,0.00
2018-04-26T01:59:19.062Z,0.00
2018-04-26T02:00:19.042Z,0.00
2018-04-26T02:01:19.028Z,0.00
2018-04-26T02:02:19.048Z,0.00
2018-04-26T02:03:19.007Z,0.00
2018-04-26T02:04:18.996Z,0.00
2018-04-26T02:05:18.983Z,0.00
2018-04-26T02:06:18.972Z,0.00
2018-04-26T02:07:18.961Z,0.00
2018-04-26T02:08:18.955Z,0.00
2018-04-26T02:09:18.945Z,0.00
2018-04-26T02:10:18.927Z,0.00
2018-04-26T02:11:18.919Z,0.00
2018-04-26T02:12:18.905Z,0.00
2018-04-26T02:13:18.900Z,0.00
2018-04-26T02:14:18.907Z,0.00
2018-04-26T02:15:18.872Z,0.00
2018-04-26T02:16:18.901Z,0.00
2018-04-26T02:17:18.849Z,0.00
2018-04-26T02:18:18.837Z,0.00
2018-04-26T02:19:18.827Z,0.00
2018-04-26T02:20:18.816Z,0.00
2018-04-26T02:21:18.805Z,0.00
2018-04-26T02:22:18.800Z,0.00
2018-04-26T02:23:18.794Z,0.00
2018-04-26T02:24:18.771Z,0.00
2018-04-26T02:25:18.781Z,0.00
2018-04-26T02:26:18.748Z,0.00
2018-04-26T02:27:18.737Z,0.00
2018-04-26T02:28:18.744Z,0.00
2018-04-26T02:29:18.716Z,0.00
2018-04-26T02:30:18.722Z,0.00
2018-04-26T02:31:18.694Z,0.00
2018-04-26T02:32:18.682Z,0.00
2018-04-26T02:33:18.672Z,0.00
2018-04-26T02:34:18.661Z,0.00
2018-04-26T02:35:18.649Z,0.00
2018-04-26T02:36:18.638Z,0.00
2018-04-26T02:37:18.628Z,0.00
2018-04-26T02:38:18.622Z,0.00
2018-04-26T02:39:18.661Z,0.00
2018-04-26T02:40:18.594Z,0.00
2018-04-26T02:41:18.582Z,0.00
2018-04-26T02:42:18.598Z,0.00
2018-04-26T02:43:18.579Z,0.00
2018-04-26T02:44:18.549Z,0.00
2018-04-26T02:45:18.742Z,0.00
2018-04-26T02:46:18.603Z,0.00
2018-04-26T02:47:18.517Z,0.00
2018-04-26T02:48:18.512Z,0.00
2018-04-26T02:49:18.494Z,0.00
2018-04-26T02:50:18.481Z,0.00
2018-04-26T02:51:18.471Z,0.00
2018-04-26T02:52:18.469Z,0.00
2018-04-26T02:53:18.450Z,0.00
2018-04-26T02:54:18.457Z,0.00
2018-04-26T02:55:18.426Z,0.00
2018-04-26T02:56:18.415Z,0.00
2018-04-26T02:57:18.404Z,0.00
2018-04-26T02:58:18.406Z,0.00
2018-04-26T02:59:18.382Z,0.00
2018-04-26T03:00:18.374Z,0.00
2018-04-26T03:01:18.359Z,0.00
2018-04-26T03:02:18.347Z,0.00
2018-04-26T03:03:18.341Z,0.00
2018-04-26T03:04:18.325Z,0.00
2018-04-26T03:05:18.315Z,0.00
2018-04-26T03:06:18.302Z,0.00
2018-04-26T03:07:18.301Z,0.00
2018-04-26T03:08:18.312Z,0.00
2018-04-26T03:09:18.276Z,0.00
2018-04-26T03:10:18.258Z,0.00
2018-04-26T03:11:18.276Z,0.00
2018-04-26T03:12:18.239Z,0.00
2018-04-26T03:13:18.224Z,0.00
2018-04-26T03:14:18.432Z,0.00
2018-04-26T03:15:18.202Z,0.00
2018-04-26T03:16:18.239Z,0.00
2018-04-26T03:17:18.179Z,0.00
2018-04-26T03:18:18.168Z,0.00
2018-04-26T03:19:18.154Z,0.00
2018-04-26T03:20:18.150Z,0.00
2018-04-26T03:21:18.190Z,0.00
2018-04-26T03:22:18.123Z,0.00
2018-04-26T03:23:18.108Z,0.00
2018-04-26T03:24:18.144Z,0.00
2018-04-26T03:25:18.107Z,0.00
2018-04-26T03:26:18.073Z,0.00
2018-04-26T03:27:18.073Z,0.00
2018-04-26T03:28:18.050Z,0.00
2018-04-26T03:29:18.038Z,0.00
2018-04-26T03:30:18.027Z,0.00
2018-04-26T03:31:18.125Z,0.00
2018-04-26T03:32:18.003Z,0.00
2018-04-26T03:33:17.991Z,0.00
2018-04-26T03:34:17.979Z,0.00
2018-04-26T03:35:18.036Z,0.00
2018-04-26T03:36:17.956Z,0.00
2018-04-26T03:37:17.948Z,0.00
2018-04-26T03:38:17.931Z,0.00
2018-04-26T03:39:17.919Z,0.00
2018-04-26T03:40:17.907Z,0.00
2018-04-26T03:41:17.896Z,0.00
2018-04-26T03:42:17.883Z,0.00
2018-04-26T03:43:17.870Z,0.00
2018-04-26T03:44:17.875Z,0.00
2018-04-26T03:45:17.885Z,0.00
2018-04-26T03:46:17.842Z,0.00
2018-04-26T03:47:17.823Z,0.00
2018-04-26T03:48:17.846Z,0.00
2018-04-26T03:49:17.800Z,0.00
2018-04-26T03:50:17.990Z,0.00
2018-04-26T03:51:17.783Z,0.00
2018-04-26T03:52:17.763Z,0.00
2018-04-26T03:53:17.752Z,0.00
2018-04-26T03:54:17.755Z,0.00
2018-04-26T03:55:17.757Z,0.00
2018-04-26T03:56:17.717Z,0.00
2018-04-26T03:57:17.736Z,0.00
2018-04-26T03:58:17.695Z,0.00
2018-04-26T03:59:17.684Z,0.00
2018-04-26T04:00:17.672Z,0.00
2018-04-26T04:01:17.658Z,0.00
2018-04-26T04:02:17.645Z,0.00
2018-04-26T04:03:17.633Z,0.00
2018-04-26T04:04:17.649Z,0.00
2018-04-26T04:05:17.612Z,0.00
2018-04-26T04:06:17.643Z,0.00
2018-04-26T04:07:17.586Z,0.00
2018-04-26T04:08:17.809Z,0.00
2018-04-26T04:09:17.571Z,0.00
2018-04-26T04:10:17.584Z,0.00
2018-04-26T04:11:17.584Z,0.00
2018-04-26T04:12:17.555Z,0.00
2018-04-26T04:13:17.514Z,0.00
2018-04-26T04:14:17.548Z,0.00
2018-04-26T04:15:17.489Z,0.00
2018-04-26T04:16:17.478Z,5.63
2018-04-26T04:17:17.466Z,5.63
2018-04-26T04:18:17.453Z,5.63
2018-04-26T04:19:17.441Z,5.63
2018-04-26T04:20:17.430Z,5.63
2018-04-26T04:21:17.439Z,5.63
2018-04-26T04:22:17.406Z,11.25
2018-04-26T04:23:17.474Z,11.25
2018-04-26T04:24:17.383Z,11.25
2018-04-26T04:25:17.440Z,11.25
2018-04-26T04:26:17.357Z,11.25
2018-04-26T04:27:17.346Z,11.25
2018-04-26T04:28:17.337Z,11.25
2018-04-26T04:29:17.324Z,11.25
2018-04-26T04:30:17.310Z,16.88
2018-04-26T04:31:17.503Z,16.88
2018-04-26T04:32:17.287Z,22.50
2018-04-26T04:33:17.276Z,22.50
2018-04-26T04:34:17.263Z,22.50
2018-04-26T04:35:17.299Z,16.88
2018-04-26T04:36:17.248Z,22.50
2018-04-26T04:37:17.443Z,22.50
2018-04-26T04:38:17.221Z,22.50
2018-04-26T04:39:17.204Z,28.13
2018-04-26T04:40:17.199Z,33.75
2018-04-26T04:41:17.185Z,39.38
2018-04-26T04:42:17.170Z,39.38
2018-04-26T04:43:17.157Z,45.00
2018-04-26T04:44:17.146Z,45.00
2018-04-26T04:45:17.218Z,45.00
2018-04-26T04:46:17.222Z,45.00
2018-04-26T04:47:17.189Z,45.00
2018-04-26T04:48:17.111Z,50.63
2018-04-26T04:49:17.092Z,56.25
2018-04-26T04:50:17.075Z,61.88
2018-04-26T04:51:17.064Z,73.13
2018-04-26T04:52:17.056Z,67.50
2018-04-26T04:53:17.041Z,73.13
2018-04-26T04:54:17.029Z,84.38
2018-04-26T04:55:17.017Z,84.38
2018-04-26T04:56:17.054Z,90.00
2018-04-26T04:57:17.012Z,112.50
2018-04-26T04:58:16.984Z,123.75
2018-04-26T04:59:16.974Z,101.25
2018-04-26T05:00:16.962Z,95.63
2018-04-26T05:01:16.949Z,78.75
2018-04-26T05:02:16.966Z,84.38
2018-04-26T05:03:16.926Z,78.75
2018-04-26T05:04:16.916Z,67.50
2018-04-26T05:05:16.911Z,56.25
2018-04-26T05:06:16.972Z,50.63
2018-04-26T05:07:16.930Z,50.63
2018-04-26T05:08:16.867Z,61.88
2018-04-26T05:09:16.864Z,56.25
2018-04-26T05:10:16.851Z,50.63
2018-04-26T05:11:16.832Z,45.00
2018-04-26T05:12:16.822Z,45.00
2018-04-26T05:13:16.821Z,50.63
2018-04-26T05:14:16.872Z,61.88
2018-04-26T05:15:16.816Z,73.13
2018-04-26T05:16:16.783Z,84.38
2018-04-26T05:17:16.765Z,90.00
2018-04-26T05:18:16.757Z,101.25
2018-04-26T05:19:16.746Z,84.38
2018-04-26T05:20:16.733Z,56.25
2018-04-26T05:21:16.726Z,33.75
2018-04-26T05:22:16.708Z,33.75
2018-04-26T05:23:16.698Z,39.38
2018-04-26T05:24:16.692Z,50.63
2018-04-26T05:25:16.678Z,45.00
2018-04-26T05:26:16.695Z,39.38
2018-04-26T05:27:16.652Z,33.75
2018-04-26T05:28:16.643Z,33.75
2018-04-26T05:29:16.643Z,28.13
2018-04-26T05:30:16.620Z,22.50
2018-04-26T05:31:16.605Z,33.75
2018-04-26T05:32:16.594Z,33.75
2018-04-26T05:33:16.688Z,39.38
2018-04-26T05:34:16.605Z,45.00
2018-04-26T05:35:16.563Z,61.88
2018-04-26T05:36:16.558Z,78.75
2018-04-26T05:37:16.537Z,73.13
2018-04-26T05:38:16.528Z,61.88
2018-04-26T05:39:16.584Z,56.25
2018-04-26T05:40:16.523Z,61.88
2018-04-26T05:41:16.493Z,67.50
2018-04-26T05:42:16.477Z,67.50
2018-04-26T05:43:16.475Z,45.00
2018-04-26T05:44:16.483Z,50.63
2018-04-26T05:45:16.443Z,50.63
2018-04-26T05:46:16.434Z,50.63
2018-04-26T05:47:16.519Z,50.63
2018-04-26T05:48:16.413Z,61.88
2018-04-26T05:49:16.402Z,73.13
2018-04-26T05:50:16.392Z,67.50
2018-04-26T05:51:16.377Z,78.75
2018-04-26T05:52:16.368Z,67.50
2018-04-26T05:53:16.403Z,61.88
2018-04-26T05:54:16.370Z,73.13
2018-04-26T05:55:16.327Z,90.00
2018-04-26T05:56:16.319Z,90.00
2018-04-26T05:57:16.306Z,78.75
2018-04-26T05:58:16.297Z,78.75
2018-04-26T05:59:16.284Z,84.38
2018-04-26T06:00:16.270Z,84.38
2018-04-26T06:01:16.342Z,118.13
2018-04-26T06:02:16.311Z,146.25
2018-04-26T06:03:16.239Z,140.63
2018-04-26T06:04:16.228Z,112.50
2018-04-26T06:05:16.213Z,78.75
2018-04-26T06:06:16.203Z,90.00
2018-04-26T06:07:16.257Z,73.13
2018-04-26T06:08:16.204Z,95.63
2018-04-26T06:09:16.169Z,118.13
2018-04-26T06:10:16.160Z,146.25
2018-04-26T06:11:16.214Z,140.63
2018-04-26T06:12:16.131Z,129.38
2018-04-26T06:13:16.326Z,118.13
2018-04-26T06:14:16.143Z,140.63
2018-04-26T06:15:16.097Z,185.63
2018-04-26T06:16:16.085Z,213.75
2018-04-26T06:17:16.135Z,236.25
2018-04-26T06:18:16.069Z,326.25
2018-04-26T06:19:16.052Z,331.88
2018-04-26T06:20:16.046Z,270.00
2018-04-26T06:21:16.034Z,213.75
2018-04-26T06:22:16.019Z,163.13
2018-04-26T06:23:16.009Z,180.00
2018-04-26T06:24:15.999Z,174.38
2018-04-26T06:25:15.983Z,219.38
2018-04-26T06:26:15.981Z,196.88
2018-04-26T06:27:15.964Z,112.50
2018-04-26T06:28:15.952Z,90.00
2018-04-26T06:29:15.945Z,106.88
2018-04-26T06:30:15.931Z,78.75
2018-04-26T06:31:15.916Z,67.50
2018-04-26T06:32:15.908Z,78.75
2018-04-26T06:33:15.896Z,118.13
2018-04-26T06:34:15.886Z,168.75
2018-04-26T06:35:15.874Z,185.63
2018-04-26T06:36:15.947Z,191.25
2018-04-26T06:37:15.848Z,196.88
2018-04-26T06:38:15.839Z,213.75
2018-04-26T06:39:15.834Z,219.38
2018-04-26T06:40:15.817Z,241.88
2018-04-26T06:41:15.801Z,343.13
2018-04-26T06:42:15.875Z,450.00
2018-04-26T06:43:15.981Z,506.25
2018-04-26T06:44:15.792Z,517.50
2018-04-26T06:45:15.961Z,489.38
2018-04-26T06:46:15.744Z,511.88
2018-04-26T06:47:15.779Z,495.00
2018-04-26T06:48:15.731Z,410.63
2018-04-26T06:49:15.718Z,399.38
2018-04-26T06:50:15.702Z,371.25
2018-04-26T06:51:15.694Z,343.13
2018-04-26T06:52:15.681Z,298.13
2018-04-26T06:53:15.755Z,281.25
2018-04-26T06:54:15.658Z,225.00
2018-04-26T06:55:15.652Z,281.25
2018-04-26T06:56:15.634Z,236.25
2018-04-26T06:57:15.624Z,258.75
2018-04-26T06:58:15.612Z,286.88
2018-04-26T06:59:15.618Z,298.13
2018-04-26T07:00:15.591Z,348.75
2018-04-26T07:01:15.587Z,360.00
2018-04-26T07:02:15.570Z,433.13
2018-04-26T07:03:15.558Z,354.38
2018-04-26T07:04:15.553Z,315.00
2018-04-26T07:05:15.742Z,309.38
2018-04-26T07:06:15.530Z,303.75
2018-04-26T07:07:15.520Z,286.88
2018-04-26T07:08:15.505Z,326.25
2018-04-26T07:09:15.495Z,438.75
2018-04-26T07:10:15.483Z,416.25
2018-04-26T07:11:15.476Z,337.50
2018-04-26T07:12:15.462Z,258.75
2018-04-26T07:13:15.547Z,196.88
2018-04-26T07:14:15.489Z,174.38
2018-04-26T07:15:15.434Z,163.13
2018-04-26T07:16:15.418Z,180.00
2018-04-26T07:17:15.409Z,230.63
2018-04-26T07:18:15.398Z,286.88
2018-04-26T07:19:15.385Z,303.75
2018-04-26T07:20:15.413Z,326.25
2018-04-26T07:21:15.364Z,382.50
2018-04-26T07:22:15.353Z,399.38
2018-04-26T07:23:15.343Z,393.75
2018-04-26T07:24:15.414Z,472.50
2018-04-26T07:25:15.389Z,646.88
2018-04-26T07:26:15.311Z,545.63
2018-04-26T07:27:15.312Z,399.38
2018-04-26T07:28:15.291Z,393.75
2018-04-26T07:29:15.281Z,264.38
2018-04-26T07:30:15.269Z,292.50
2018-04-26T07:31:15.288Z,388.13
2018-04-26T07:32:15.249Z,483.75
2018-04-26T07:33:15.241Z,551.25
2018-04-26T07:34:15.230Z,478.13
2018-04-26T07:35:15.218Z,365.63
2018-04-26T07:36:15.292Z,348.75
2018-04-26T07:37:15.202Z,388.13
2018-04-26T07:38:15.194Z,376.88
2018-04-26T07:39:15.183Z,438.75
2018-04-26T07:40:15.171Z,590.63
2018-04-26T07:41:15.271Z,697.50
2018-04-26T07:42:15.147Z,585.00
2018-04-26T07:43:15.141Z,585.00
2018-04-26T07:44:15.127Z,517.50
2018-04-26T07:45:15.118Z,624.38
2018-04-26T07:46:15.112Z,669.38
2018-04-26T07:47:15.100Z,686.25
2018-04-26T07:48:15.091Z,630.00
2018-04-26T07:49:15.138Z,703.13
2018-04-26T07:50:15.082Z,545.63
2018-04-26T07:51:15.075Z,388.13
2018-04-26T07:52:15.052Z,382.50
2018-04-26T07:53:15.117Z,568.13
2018-04-26T07:54:15.030Z,798.75
2018-04-26T07:55:15.020Z,697.50
2018-04-26T07:56:15.023Z,585.00
2018-04-26T07:57:15.007Z,860.63
2018-04-26T07:58:14.992Z,2604.38
2018-04-26T07:59:15.190Z,742.50
2018-04-26T08:00:14.975Z,708.75
2018-04-26T08:01:14.995Z,500.63
2018-04-26T08:02:14.965Z,348.75
2018-04-26T08:03:14.956Z,416.25
2018-04-26T08:04:14.942Z,540.00
2018-04-26T08:05:14.935Z,517.50
2018-04-26T08:06:14.925Z,455.63
2018-04-26T08:07:15.126Z,663.75
2018-04-26T08:08:14.971Z,1659.38
2018-04-26T08:09:14.905Z,736.88
2018-04-26T08:10:14.896Z,675.00
2018-04-26T08:11:14.883Z,421.88
2018-04-26T08:12:14.875Z,236.25
2018-04-26T08:13:14.934Z,191.25
2018-04-26T08:14:14.868Z,191.25
2018-04-26T08:15:14.863Z,241.88
2018-04-26T08:16:14.839Z,281.25
2018-04-26T08:17:14.833Z,360.00
2018-04-26T08:18:14.820Z,444.38
2018-04-26T08:19:14.855Z,601.88
2018-04-26T08:20:14.803Z,765.00
2018-04-26T08:21:14.796Z,703.13
2018-04-26T08:22:14.786Z,540.00
2018-04-26T08:23:14.773Z,393.75
2018-04-26T08:24:14.793Z,360.00
2018-04-26T08:25:14.764Z,326.25
2018-04-26T08:26:14.751Z,303.75
2018-04-26T08:27:14.736Z,337.50
2018-04-26T08:28:14.727Z,331.88
2018-04-26T08:29:14.717Z,258.75
2018-04-26T08:30:14.712Z,236.25
2018-04-26T08:31:14.711Z,275.63
2018-04-26T08:32:14.689Z,331.88
2018-04-26T08:33:14.685Z,405.00
2018-04-26T08:34:14.668Z,601.88
2018-04-26T08:35:14.666Z,832.50
2018-04-26T08:36:14.649Z,1063.13
2018-04-26T08:37:14.677Z,1198.13
2018-04-26T08:38:14.664Z,1136.25
2018-04-26T08:39:14.621Z,1006.88
2018-04-26T08:40:14.620Z,1614.38
2018-04-26T08:41:14.606Z,1411.88
2018-04-26T08:42:14.595Z,1006.88
2018-04-26T08:43:14.586Z,798.75
2018-04-26T08:44:14.578Z,753.75
2018-04-26T08:45:14.651Z,354.38
2018-04-26T08:46:14.564Z,309.38
2018-04-26T08:47:14.557Z,444.38
2018-04-26T08:48:14.551Z,691.88
2018-04-26T08:49:14.538Z,1063.13
2018-04-26T08:50:14.529Z,736.88
2018-04-26T08:51:14.521Z,1203.75
2018-04-26T08:52:14.546Z,2047.50
2018-04-26T08:53:14.518Z,888.75
2018-04-26T08:54:14.540Z,860.63
2018-04-26T08:55:14.495Z,1693.13
2018-04-26T08:56:14.684Z,3211.88
2018-04-26T08:57:14.476Z,2919.38
2018-04-26T08:58:14.471Z,3110.63
2018-04-26T08:59:14.459Z,2992.50
2018-04-26T09:00:14.452Z,3211.88
2018-04-26T09:01:14.456Z,2908.13
2018-04-26T09:02:14.442Z,1473.75
2018-04-26T09:03:14.448Z,3262.50
2018-04-26T09:04:14.495Z,2975.63
2018-04-26T09:05:14.439Z,3245.63
2018-04-26T09:06:14.439Z,3262.50
2018-04-26T09:07:14.435Z,2975.63
2018-04-26T09:08:14.427Z,3133.13
2018-04-26T09:09:14.426Z,3318.75
2018-04-26T09:10:14.431Z,3504.38
2018-04-26T09:11:14.492Z,815.63
2018-04-26T09:12:14.434Z,1046.25
2018-04-26T09:13:14.502Z,2345.63
2018-04-26T09:14:14.423Z,776.25
2018-04-26T09:15:14.428Z,3481.88
2018-04-26T09:16:14.422Z,1406.25
2018-04-26T09:17:14.421Z,3228.75
2018-04-26T09:18:14.421Z,3150.00
2018-04-26T09:19:14.466Z,2711.25
2018-04-26T09:20:14.464Z,3431.25
2018-04-26T09:21:14.424Z,3442.50
2018-04-26T09:22:14.418Z,3459.38
2018-04-26T09:23:14.421Z,3521.25
2018-04-26T09:24:14.420Z,3751.88
2018-04-26T09:25:14.427Z,3774.38
2018-04-26T09:26:14.423Z,3774.38
2018-04-26T09:27:14.425Z,3346.88
2018-04-26T09:28:14.429Z,3127.50
2018-04-26T09:29:14.440Z,2750.63
2018-04-26T09:30:14.504Z,3290.63
2018-04-26T09:31:14.437Z,1383.75
2018-04-26T09:32:14.493Z,1125.00
2018-04-26T09:33:14.462Z,990.00
2018-04-26T09:34:14.447Z,894.38
2018-04-26T09:35:14.500Z,2930.63
2018-04-26T09:36:14.447Z,658.13
2018-04-26T09:37:14.453Z,590.63
2018-04-26T09:38:14.451Z,517.50
2018-04-26T09:39:14.647Z,489.38
2018-04-26T09:40:14.443Z,556.88
2018-04-26T09:41:14.446Z,720.00
2018-04-26T09:42:14.437Z,3521.25
2018-04-26T09:43:14.434Z,3611.25
2018-04-26T09:44:14.432Z,3858.75
2018-04-26T09:45:14.463Z,3313.13
2018-04-26T09:46:14.444Z,3841.88
2018-04-26T09:47:14.426Z,3915.00
2018-04-26T09:48:14.426Z,3875.63
2018-04-26T09:49:14.435Z,1535.63
2018-04-26T09:50:14.426Z,1226.25
2018-04-26T09:51:14.434Z,2458.13
2018-04-26T09:52:14.510Z,1018.13
2018-04-26T09:53:14.437Z,3279.38
2018-04-26T09:54:14.425Z,3470.63
2018-04-26T09:55:14.427Z,843.75
2018-04-26T09:56:14.435Z,1732.50
2018-04-26T09:57:14.511Z,939.38
2018-04-26T09:58:14.424Z,3481.88
2018-04-26T09:59:14.435Z,933.75
2018-04-26T10:00:14.425Z,860.63
2018-04-26T10:01:14.437Z,804.38
2018-04-26T10:02:14.423Z,765.00
2018-04-26T10:03:14.418Z,821.25
2018-04-26T10:04:14.415Z,978.75
2018-04-26T10:05:14.412Z,2418.75
2018-04-26T10:06:14.459Z,1901.25
2018-04-26T10:07:14.430Z,1215.00
2018-04-26T10:08:14.406Z,1243.13
2018-04-26T10:09:14.397Z,1175.63
2018-04-26T10:10:14.599Z,3420.00
2018-04-26T10:11:14.389Z,961.88
2018-04-26T10:12:14.390Z,3538.13
2018-04-26T10:13:14.388Z,3566.25
2018-04-26T10:14:14.387Z,3510.00
2018-04-26T10:15:14.380Z,3763.13
2018-04-26T10:16:14.453Z,1209.38
2018-04-26T10:17:14.393Z,1018.13
2018-04-26T10:18:14.415Z,1096.88
2018-04-26T10:19:14.373Z,1676.25
2018-04-26T10:20:14.378Z,1456.88
2018-04-26T10:21:14.422Z,1254.38
2018-04-26T10:22:14.369Z,1068.75
2018-04-26T10:23:14.424Z,2221.88
2018-04-26T10:24:14.370Z,877.50
2018-04-26T10:25:14.366Z,804.38
2018-04-26T10:26:14.361Z,742.50
2018-04-26T10:27:14.360Z,691.88
2018-04-26T10:28:14.357Z,691.88
2018-04-26T10:29:14.353Z,821.25
2018-04-26T10:30:14.389Z,990.00
2018-04-26T10:31:14.352Z,1102.50
2018-04-26T10:32:14.344Z,3054.38
2018-04-26T10:33:14.347Z,4016.25
2018-04-26T10:34:14.335Z,2548.13
2018-04-26T10:35:14.359Z,1462.50
2018-04-26T10:36:14.340Z,1659.38
2018-04-26T10:37:14.328Z,4117.50
2018-04-26T10:38:14.329Z,1845.00
2018-04-26T10:39:14.324Z,1209.38
2018-04-26T10:40:14.348Z,1023.75
2018-04-26T10:41:14.333Z,855.00
2018-04-26T10:42:14.326Z,776.25
2018-04-26T10:43:14.318Z,742.50
2018-04-26T10:44:14.402Z,697.50
2018-04-26T10:45:14.308Z,708.75
2018-04-26T10:46:14.383Z,776.25
2018-04-26T10:47:14.300Z,905.63
2018-04-26T10:48:14.297Z,1046.25
2018-04-26T10:49:14.294Z,1203.75
2018-04-26T10:51:14.283Z,1141.88
2018-04-26T10:52:14.284Z,1096.88
2018-04-26T10:53:14.275Z,1113.75
2018-04-26T10:54:14.278Z,1327.50
2018-04-26T10:55:14.276Z,1406.25
2018-04-26T10:56:14.350Z,3751.88
2018-04-26T10:57:14.259Z,3746.25
2018-04-26T10:58:14.261Z,3746.25
2018-04-26T10:59:14.249Z,3690.00
2018-04-26T11:00:14.325Z,3723.75
2018-04-26T11:01:14.244Z,1676.25
2018-04-26T11:02:14.454Z,961.88
2018-04-26T11:03:14.308Z,1130.63
2018-04-26T11:04:14.245Z,1203.75
2018-04-26T11:05:14.248Z,1125.00
2018-04-26T11:06:14.238Z,1051.88
2018-04-26T11:07:14.235Z,1057.50
2018-04-26T11:08:14.238Z,1051.88
2018-04-26T11:09:14.248Z,1051.88
2018-04-26T11:10:14.229Z,1040.63
2018-04-26T11:11:14.249Z,984.38
2018-04-26T11:12:14.223Z,939.38
2018-04-26T11:13:14.450Z,888.75
2018-04-26T11:14:14.274Z,832.50
2018-04-26T11:15:14.211Z,787.50
2018-04-26T11:16:14.210Z,798.75
2018-04-26T11:17:14.270Z,928.13
2018-04-26T11:18:14.196Z,1569.38
2018-04-26T11:19:14.205Z,1873.13
2018-04-26T11:20:14.193Z,1276.88
2018-04-26T11:21:14.264Z,1164.38
2018-04-26T11:22:14.268Z,1141.88
2018-04-26T11:23:14.177Z,1170.00
2018-04-26T11:24:14.176Z,1231.88
2018-04-26T11:25:14.173Z,1389.38
2018-04-26T11:26:14.160Z,2829.38
2018-04-26T11:27:14.155Z,2300.63
2018-04-26T11:28:14.155Z,1119.38
2018-04-26T11:29:14.153Z,3701.25
2018-04-26T11:30:14.143Z,3661.88
2018-04-26T11:31:14.174Z,978.75
2018-04-26T11:32:14.137Z,1018.13
2018-04-26T11:33:14.144Z,3273.75
2018-04-26T11:34:14.132Z,1254.38
2018-04-26T11:35:14.140Z,1012.50
2018-04-26T11:36:14.130Z,1102.50
2018-04-26T11:37:14.168Z,815.63
2018-04-26T11:38:14.141Z,871.88
2018-04-26T11:39:14.119Z,2795.63
2018-04-26T11:40:14.206Z,3403.13
2018-04-26T11:41:14.120Z,3380.63
2018-04-26T11:42:14.123Z,3498.75
2018-04-26T11:43:14.111Z,1980.00
2018-04-26T11:44:14.177Z,1513.13
2018-04-26T11:45:14.159Z,3448.13
2018-04-26T11:46:14.319Z,3268.13
2018-04-26T11:47:14.123Z,3178.13
2018-04-26T11:48:14.118Z,3093.75
2018-04-26T11:49:14.112Z,3065.63
2018-04-26T11:50:14.117Z,3088.13
2018-04-26T11:51:14.123Z,3155.63
2018-04-26T11:52:14.121Z,3206.25
2018-04-26T11:53:14.173Z,2486.25
2018-04-26T11:54:14.162Z,860.63
2018-04-26T11:55:14.139Z,3240.00
2018-04-26T11:56:14.130Z,3352.50
2018-04-26T11:57:14.131Z,1136.25
2018-04-26T11:58:14.134Z,3127.50
2018-04-26T11:59:14.167Z,1996.88
2018-04-26T12:00:14.135Z,2025.00
2018-04-26T12:01:14.140Z,3105.00
2018-04-26T12:02:14.166Z,3076.88
2018-04-26T12:03:14.143Z,2964.38
2018-04-26T12:04:14.144Z,2947.50
2018-04-26T12:05:14.146Z,3031.88
2018-04-26T12:06:14.155Z,2986.88
2018-04-26T12:07:14.215Z,945.00
2018-04-26T12:08:14.184Z,736.88
2018-04-26T12:09:14.160Z,843.75
2018-04-26T12:10:14.169Z,3223.13
2018-04-26T12:11:14.164Z,765.00
2018-04-26T12:12:14.160Z,1530.00
2018-04-26T12:13:14.247Z,3161.25
2018-04-26T12:14:14.160Z,3099.38
2018-04-26T12:15:14.192Z,3161.25
2018-04-26T12:16:14.168Z,3150.00
2018-04-26T12:17:14.218Z,3121.88
2018-04-26T12:18:14.185Z,3183.75
2018-04-26T12:19:14.166Z,3256.88
2018-04-26T12:20:14.168Z,3161.25
2018-04-26T12:21:14.177Z,3003.75
2018-04-26T12:22:14.179Z,3031.88
2018-04-26T12:23:14.174Z,2947.50
2018-04-26T12:24:14.180Z,2964.38
2018-04-26T12:25:14.232Z,2880.00
2018-04-26T12:26:14.250Z,2953.13
2018-04-26T12:27:14.199Z,2835.00
2018-04-26T12:28:14.187Z,2722.50
2018-04-26T12:29:14.196Z,2784.38
2018-04-26T12:30:14.195Z,2823.75
2018-04-26T12:31:14.191Z,2840.63
2018-04-26T12:32:14.406Z,2745.00
2018-04-26T12:33:14.202Z,2829.38
2018-04-26T12:34:14.203Z,2818.13
2018-04-26T12:35:14.276Z,2846.25
2018-04-26T12:36:14.207Z,2823.75
2018-04-26T12:37:14.409Z,2767.50
2018-04-26T12:38:14.221Z,2688.75
2018-04-26T12:39:14.219Z,2829.38
2018-04-26T12:40:14.214Z,2812.50
2018-04-26T12:41:14.215Z,2885.63
2018-04-26T12:42:14.318Z,3009.38
2018-04-26T12:43:14.251Z,2846.25